sensor_id;sensor_type;location;lat;lon;timestamp;temperature;humidity
74224;SHT31;62585;49.706;18.216;2022-12-11T00:00:33;0.88;92.81
74224;SHT31;62585;49.706;18.216;2022-12-11T00:03:19;0.90;92.66
74224;SHT31;62585;49.706;18.216;2022-12-11T00:05:45;0.88;92.65
74224;SHT31;62585;49.706;18.216;2022-12-11T00:08:11;0.88;92.50
74224;SHT31;62585;49.706;18.216;2022-12-11T00:10:38;0.88;92.78
74224;SHT31;62585;49.706;18.216;2022-12-11T00:13:04;0.88;92.67
74224;SHT31;62585;49.706;18.216;2022-12-11T00:15:30;0.80;92.71
74224;SHT31;62585;49.706;18.216;2022-12-11T00:17:55;0.84;92.81
74224;SHT31;62585;49.706;18.216;2022-12-11T00:20:21;0.77;92.65
74224;SHT31;62585;49.706;18.216;2022-12-11T00:22:47;0.76;92.70
74224;SHT31;62585;49.706;18.216;2022-12-11T00:25:13;0.87;92.61
74224;SHT31;62585;49.706;18.216;2022-12-11T00:27:38;0.83;92.71
74224;SHT31;62585;49.706;18.216;2022-12-11T00:30:05;0.77;92.92
74224;SHT31;62585;49.706;18.216;2022-12-11T00:32:31;0.80;92.86
74224;SHT31;62585;49.706;18.216;2022-12-11T00:34:57;0.79;93.03
74224;SHT31;62585;49.706;18.216;2022-12-11T00:37:22;0.84;92.76
74224;SHT31;62585;49.706;18.216;2022-12-11T00:39:48;0.88;92.62
74224;SHT31;62585;49.706;18.216;2022-12-11T00:42:14;0.84;93.00
74224;SHT31;62585;49.706;18.216;2022-12-11T00:44:40;0.90;92.60
74224;SHT31;62585;49.706;18.216;2022-12-11T00:47:07;0.85;92.32
74224;SHT31;62585;49.706;18.216;2022-12-11T00:49:33;0.94;92.46
74224;SHT31;62585;49.706;18.216;2022-12-11T00:51:58;0.90;92.22
74224;SHT31;62585;49.706;18.216;2022-12-11T00:54:24;0.79;92.99
74224;SHT31;62585;49.706;18.216;2022-12-11T00:56:50;0.74;93.06
74224;SHT31;62585;49.706;18.216;2022-12-11T00:59:16;0.76;92.70
74224;SHT31;62585;49.706;18.216;2022-12-11T01:01:41;0.74;92.90
74224;SHT31;62585;49.706;18.216;2022-12-11T01:04:07;0.80;92.96
74224;SHT31;62585;49.706;18.216;2022-12-11T01:06:33;0.77;92.76
74224;SHT31;62585;49.706;18.216;2022-12-11T01:08:59;0.79;92.88
74224;SHT31;62585;49.706;18.216;2022-12-11T01:11:43;0.80;92.60
74224;SHT31;62585;49.706;18.216;2022-12-11T01:14:13;0.76;92.93
74224;SHT31;62585;49.706;18.216;2022-12-11T01:16:38;0.57;93.64
74224;SHT31;62585;49.706;18.216;2022-12-11T01:19:04;0.64;93.77
74224;SHT31;62585;49.706;18.216;2022-12-11T01:21:30;0.76;93.23
74224;SHT31;62585;49.706;18.216;2022-12-11T01:23:56;0.64;93.58
74224;SHT31;62585;49.706;18.216;2022-12-11T01:26:21;0.69;93.36
74224;SHT31;62585;49.706;18.216;2022-12-11T01:28:49;0.74;93.06
74224;SHT31;62585;49.706;18.216;2022-12-11T01:31:16;0.73;93.06
74224;SHT31;62585;49.706;18.216;2022-12-11T01:33:42;0.66;93.48
74224;SHT31;62585;49.706;18.216;2022-12-11T01:36:18;0.73;93.31
74224;SHT31;62585;49.706;18.216;2022-12-11T01:38:46;0.69;93.51
74224;SHT31;62585;49.706;18.216;2022-12-11T01:41:12;0.69;93.42
74224;SHT31;62585;49.706;18.216;2022-12-11T01:43:57;0.69;93.62
74224;SHT31;62585;49.706;18.216;2022-12-11T01:46:24;0.67;93.68
74224;SHT31;62585;49.706;18.216;2022-12-11T01:48:51;0.62;93.85
74224;SHT31;62585;49.706;18.216;2022-12-11T01:51:17;0.69;93.94
74224;SHT31;62585;49.706;18.216;2022-12-11T01:53:47;0.63;93.90
74224;SHT31;62585;49.706;18.216;2022-12-11T01:56:16;0.63;93.89
74224;SHT31;62585;49.706;18.216;2022-12-11T01:58:46;0.69;93.81
74224;SHT31;62585;49.706;18.216;2022-12-11T02:01:42;0.63;93.82
74224;SHT31;62585;49.706;18.216;2022-12-11T02:04:10;0.59;94.08
74224;SHT31;62585;49.706;18.216;2022-12-11T02:06:41;0.53;94.39
74224;SHT31;62585;49.706;18.216;2022-12-11T02:09:15;0.59;94.13
74224;SHT31;62585;49.706;18.216;2022-12-11T02:14:52;0.66;94.03
74224;SHT31;62585;49.706;18.216;2022-12-11T02:31:46;0.70;93.57
74224;SHT31;62585;49.706;18.216;2022-12-11T02:33:52;0.63;93.99
74224;SHT31;62585;49.706;18.216;2022-12-11T02:36:22;0.62;94.07
74224;SHT31;62585;49.706;18.216;2022-12-11T02:38:51;0.46;94.60
74224;SHT31;62585;49.706;18.216;2022-12-11T02:41:20;0.53;94.40
74224;SHT31;62585;49.706;18.216;2022-12-11T02:43:47;0.50;94.53
74224;SHT31;62585;49.706;18.216;2022-12-11T02:46:15;0.50;94.50
74224;SHT31;62585;49.706;18.216;2022-12-11T02:48:42;0.54;94.41
74224;SHT31;62585;49.706;18.216;2022-12-11T02:51:09;0.54;94.14
74224;SHT31;62585;49.706;18.216;2022-12-11T02:53:37;0.53;94.63
74224;SHT31;62585;49.706;18.216;2022-12-11T02:56:20;0.59;94.45
74224;SHT31;62585;49.706;18.216;2022-12-11T02:58:50;0.46;94.78
74224;SHT31;62585;49.706;18.216;2022-12-11T03:01:18;0.56;94.61
74224;SHT31;62585;49.706;18.216;2022-12-11T03:03:44;0.57;94.46
74224;SHT31;62585;49.706;18.216;2022-12-11T03:06:15;0.64;94.30
74224;SHT31;62585;49.706;18.216;2022-12-11T03:08:43;0.60;94.31
74224;SHT31;62585;49.706;18.216;2022-12-11T03:11:10;0.50;94.51
74224;SHT31;62585;49.706;18.216;2022-12-11T03:13:38;0.53;94.70
74224;SHT31;62585;49.706;18.216;2022-12-11T03:16:19;0.52;94.43
74224;SHT31;62585;49.706;18.216;2022-12-11T03:19:16;0.59;94.38
74224;SHT31;62585;49.706;18.216;2022-12-11T03:21:51;0.48;94.52
74224;SHT31;62585;49.706;18.216;2022-12-11T03:24:23;0.48;94.45
74224;SHT31;62585;49.706;18.216;2022-12-11T03:26:58;0.53;94.63
74224;SHT31;62585;49.706;18.216;2022-12-11T03:29:39;0.53;94.67
74224;SHT31;62585;49.706;18.216;2022-12-11T03:32:12;0.52;94.59
74224;SHT31;62585;49.706;18.216;2022-12-11T03:34:45;0.45;94.87
74224;SHT31;62585;49.706;18.216;2022-12-11T03:37:16;0.41;94.73
74224;SHT31;62585;49.706;18.216;2022-12-11T03:39:50;0.49;94.28
74224;SHT31;62585;49.706;18.216;2022-12-11T03:42:18;0.56;94.41
74224;SHT31;62585;49.706;18.216;2022-12-11T03:44:47;0.66;93.96
74224;SHT31;62585;49.706;18.216;2022-12-11T03:47:17;0.57;93.91
74224;SHT31;62585;49.706;18.216;2022-12-11T03:49:44;0.56;94.13
74224;SHT31;62585;49.706;18.216;2022-12-11T03:52:12;0.56;94.04
74224;SHT31;62585;49.706;18.216;2022-12-11T03:54:41;0.53;93.95
74224;SHT31;62585;49.706;18.216;2022-12-11T03:57:09;0.43;94.05
74224;SHT31;62585;49.706;18.216;2022-12-11T03:59:37;0.52;94.09
74224;SHT31;62585;49.706;18.216;2022-12-11T04:02:03;0.53;93.75
74224;SHT31;62585;49.706;18.216;2022-12-11T04:04:37;0.59;93.86
74224;SHT31;62585;49.706;18.216;2022-12-11T04:07:02;0.62;93.75
74224;SHT31;62585;49.706;18.216;2022-12-11T04:09:28;0.53;93.71
74224;SHT31;62585;49.706;18.216;2022-12-11T04:11:54;0.45;94.19
74224;SHT31;62585;49.706;18.216;2022-12-11T04:14:20;0.45;94.27
74224;SHT31;62585;49.706;18.216;2022-12-11T04:17:04;0.49;94.14
74224;SHT31;62585;49.706;18.216;2022-12-11T04:19:30;0.53;94.05
74224;SHT31;62585;49.706;18.216;2022-12-11T04:22:16;0.49;94.22
74224;SHT31;62585;49.706;18.216;2022-12-11T04:25:02;0.50;94.09
74224;SHT31;62585;49.706;18.216;2022-12-11T04:27:28;0.49;93.76
74224;SHT31;62585;49.706;18.216;2022-12-11T04:30:19;0.46;93.73
74224;SHT31;62585;49.706;18.216;2022-12-11T04:32:44;0.43;93.75
74224;SHT31;62585;49.706;18.216;2022-12-11T04:35:11;0.42;93.51
74224;SHT31;62585;49.706;18.216;2022-12-11T04:37:37;0.56;93.63
74224;SHT31;62585;49.706;18.216;2022-12-11T04:40:06;0.59;93.28
74224;SHT31;62585;49.706;18.216;2022-12-11T04:42:32;0.56;93.60
74224;SHT31;62585;49.706;18.216;2022-12-11T04:44:58;0.54;93.63
74224;SHT31;62585;49.706;18.216;2022-12-11T04:47:24;0.57;93.40
74224;SHT31;62585;49.706;18.216;2022-12-11T04:49:50;0.54;93.10
74224;SHT31;62585;49.706;18.216;2022-12-11T04:52:16;0.56;93.20
74224;SHT31;62585;49.706;18.216;2022-12-11T04:54:42;0.45;93.17
74224;SHT31;62585;49.706;18.216;2022-12-11T04:57:08;0.49;93.52
74224;SHT31;62585;49.706;18.216;2022-12-11T04:59:34;0.41;93.42
74224;SHT31;62585;49.706;18.216;2022-12-11T05:02:02;0.41;93.67
74224;SHT31;62585;49.706;18.216;2022-12-11T05:04:33;0.43;93.62
74224;SHT31;62585;49.706;18.216;2022-12-11T05:07:00;0.48;93.49
74224;SHT31;62585;49.706;18.216;2022-12-11T05:09:26;0.41;93.35
74224;SHT31;62585;49.706;18.216;2022-12-11T05:11:52;0.39;93.57
74224;SHT31;62585;49.706;18.216;2022-12-11T05:14:18;0.36;93.55
74224;SHT31;62585;49.706;18.216;2022-12-11T05:16:44;0.45;93.48
74224;SHT31;62585;49.706;18.216;2022-12-11T05:19:10;0.48;93.06
74224;SHT31;62585;49.706;18.216;2022-12-11T05:21:36;0.25;93.64
74224;SHT31;62585;49.706;18.216;2022-12-11T05:24:02;0.25;93.41
74224;SHT31;62585;49.706;18.216;2022-12-11T05:26:28;0.30;93.57
74224;SHT31;62585;49.706;18.216;2022-12-11T05:28:54;0.36;93.32
74224;SHT31;62585;49.706;18.216;2022-12-11T05:31:22;0.35;92.85
74224;SHT31;62585;49.706;18.216;2022-12-11T05:33:49;0.30;92.72
74224;SHT31;62585;49.706;18.216;2022-12-11T05:38:45;0.25;92.93
74224;SHT31;62585;49.706;18.216;2022-12-11T05:41:13;0.18;93.23
74224;SHT31;62585;49.706;18.216;2022-12-11T05:43:39;0.06;93.75
74224;SHT31;62585;49.706;18.216;2022-12-11T05:46:10;0.14;93.79
74224;SHT31;62585;49.706;18.216;2022-12-11T05:48:36;0.18;93.57
74224;SHT31;62585;49.706;18.216;2022-12-11T05:51:06;0.12;93.62
74224;SHT31;62585;49.706;18.216;2022-12-11T05:53:35;0.18;93.83
74224;SHT31;62585;49.706;18.216;2022-12-11T05:56:02;0.08;93.52
74224;SHT31;62585;49.706;18.216;2022-12-11T05:58:29;0.21;93.36
74224;SHT31;62585;49.706;18.216;2022-12-11T06:00:54;0.08;93.43
74224;SHT31;62585;49.706;18.216;2022-12-11T06:03:20;0.18;93.46
74224;SHT31;62585;49.706;18.216;2022-12-11T06:05:46;0.18;93.60
74224;SHT31;62585;49.706;18.216;2022-12-11T06:08:12;0.26;93.09
74224;SHT31;62585;49.706;18.216;2022-12-11T06:10:44;0.19;92.82
74224;SHT31;62585;49.706;18.216;2022-12-11T06:13:10;0.16;92.76
74224;SHT31;62585;49.706;18.216;2022-12-11T06:15:36;0.16;92.83
74224;SHT31;62585;49.706;18.216;2022-12-11T06:18:02;0.22;92.86
74224;SHT31;62585;49.706;18.216;2022-12-11T06:20:30;0.16;92.89
74224;SHT31;62585;49.706;18.216;2022-12-11T06:22:56;0.05;92.56
74224;SHT31;62585;49.706;18.216;2022-12-11T06:25:22;0.05;92.65
74224;SHT31;62585;49.706;18.216;2022-12-11T06:27:49;0.05;93.31
74224;SHT31;62585;49.706;18.216;2022-12-11T06:30:15;0.02;93.09
74224;SHT31;62585;49.706;18.216;2022-12-11T06:32:41;0.05;93.28
74224;SHT31;62585;49.706;18.216;2022-12-11T06:35:08;0.05;93.38
74224;SHT31;62585;49.706;18.216;2022-12-11T06:37:34;0.16;93.53
74224;SHT31;62585;49.706;18.216;2022-12-11T06:40:00;0.16;93.30
74224;SHT31;62585;49.706;18.216;2022-12-11T06:42:28;0.11;92.76
74224;SHT31;62585;49.706;18.216;2022-12-11T06:44:54;-0.02;92.97
74224;SHT31;62585;49.706;18.216;2022-12-11T06:47:22;-0.02;93.00
74224;SHT31;62585;49.706;18.216;2022-12-11T06:49:47;0.04;93.19
74224;SHT31;62585;49.706;18.216;2022-12-11T06:52:13;0.14;92.84
74224;SHT31;62585;49.706;18.216;2022-12-11T06:54:39;0.09;92.76
74224;SHT31;62585;49.706;18.216;2022-12-11T06:57:07;0.06;92.89
74224;SHT31;62585;49.706;18.216;2022-12-11T06:59:33;0.08;92.82
74224;SHT31;62585;49.706;18.216;2022-12-11T07:01:59;0.05;92.92
74224;SHT31;62585;49.706;18.216;2022-12-11T07:04:25;0.15;92.57
74224;SHT31;62585;49.706;18.216;2022-12-11T07:06:52;0.01;92.48
74224;SHT31;62585;49.706;18.216;2022-12-11T07:09:18;0.08;92.39
74224;SHT31;62585;49.706;18.216;2022-12-11T07:11:44;0.15;92.59
74224;SHT31;62585;49.706;18.216;2022-12-11T07:14:10;0.09;92.64
74224;SHT31;62585;49.706;18.216;2022-12-11T07:16:36;0.02;92.36
74224;SHT31;62585;49.706;18.216;2022-12-11T07:19:02;-0.01;92.50
74224;SHT31;62585;49.706;18.216;2022-12-11T07:21:28;0.09;92.45
74224;SHT31;62585;49.706;18.216;2022-12-11T07:23:53;0.18;92.17
74224;SHT31;62585;49.706;18.216;2022-12-11T07:26:20;-0.01;92.06
74224;SHT31;62585;49.706;18.216;2022-12-11T07:28:47;0.08;92.20
74224;SHT31;62585;49.706;18.216;2022-12-11T07:31:16;0.02;92.05
74224;SHT31;62585;49.706;18.216;2022-12-11T07:33:43;-0.09;91.98
74224;SHT31;62585;49.706;18.216;2022-12-11T07:36:11;-0.03;92.20
74224;SHT31;62585;49.706;18.216;2022-12-11T07:38:37;-0.05;92.16
74224;SHT31;62585;49.706;18.216;2022-12-11T07:41:06;-0.06;92.43
74224;SHT31;62585;49.706;18.216;2022-12-11T07:43:33;-0.01;91.66
74224;SHT31;62585;49.706;18.216;2022-12-11T07:46:01;-0.10;91.58
74224;SHT31;62585;49.706;18.216;2022-12-11T07:48:27;-0.09;91.53
74224;SHT31;62585;49.706;18.216;2022-12-11T07:50:53;-0.10;91.82
74224;SHT31;62585;49.706;18.216;2022-12-11T07:53:18;0.01;91.56
74224;SHT31;62585;49.706;18.216;2022-12-11T07:55:44;-0.17;90.88
74224;SHT31;62585;49.706;18.216;2022-12-11T07:58:10;-0.19;91.92
74224;SHT31;62585;49.706;18.216;2022-12-11T08:00:36;-0.06;91.64
74224;SHT31;62585;49.706;18.216;2022-12-11T08:03:01;-0.12;91.02
74224;SHT31;62585;49.706;18.216;2022-12-11T08:05:27;-0.09;91.88
74224;SHT31;62585;49.706;18.216;2022-12-11T08:07:53;0.04;91.49
74224;SHT31;62585;49.706;18.216;2022-12-11T08:10:20;0.01;91.71
74224;SHT31;62585;49.706;18.216;2022-12-11T08:12:47;-0.12;91.07
74224;SHT31;62585;49.706;18.216;2022-12-11T08:15:13;-0.02;91.01
74224;SHT31;62585;49.706;18.216;2022-12-11T08:17:38;0.05;91.24
74224;SHT31;62585;49.706;18.216;2022-12-11T08:20:05;0.09;90.97
74224;SHT31;62585;49.706;18.216;2022-12-11T08:22:30;-0.06;91.21
74224;SHT31;62585;49.706;18.216;2022-12-11T08:24:56;0.05;91.22
74224;SHT31;62585;49.706;18.216;2022-12-11T08:27:22;0.14;90.72
74224;SHT31;62585;49.706;18.216;2022-12-11T08:29:49;0.16;90.91
74224;SHT31;62585;49.706;18.216;2022-12-11T08:32:14;0.29;91.02
74224;SHT31;62585;49.706;18.216;2022-12-11T08:34:41;0.32;90.20
74224;SHT31;62585;49.706;18.216;2022-12-11T08:37:07;0.30;89.52
74224;SHT31;62585;49.706;18.216;2022-12-11T08:39:33;0.19;88.82
74224;SHT31;62585;49.706;18.216;2022-12-11T08:41:58;-0.03;88.68
74224;SHT31;62585;49.706;18.216;2022-12-11T08:44:24;0.06;89.22
74224;SHT31;62585;49.706;18.216;2022-12-11T08:46:51;0.21;89.47
74224;SHT31;62585;49.706;18.216;2022-12-11T08:49:17;0.26;88.94
74224;SHT31;62585;49.706;18.216;2022-12-11T08:51:43;0.28;88.59
74224;SHT31;62585;49.706;18.216;2022-12-11T08:54:09;0.18;88.10
74224;SHT31;62585;49.706;18.216;2022-12-11T08:56:35;0.28;88.00
74224;SHT31;62585;49.706;18.216;2022-12-11T08:59:02;0.25;88.32
74224;SHT31;62585;49.706;18.216;2022-12-11T09:01:28;0.22;87.45
74224;SHT31;62585;49.706;18.216;2022-12-11T09:03:55;0.19;87.89
74224;SHT31;62585;49.706;18.216;2022-12-11T09:06:23;0.25;88.01
74224;SHT31;62585;49.706;18.216;2022-12-11T09:08:51;0.24;87.92
74224;SHT31;62585;49.706;18.216;2022-12-11T09:11:23;0.33;87.95
74224;SHT31;62585;49.706;18.216;2022-12-11T09:13:49;0.32;88.31
74224;SHT31;62585;49.706;18.216;2022-12-11T09:16:18;0.28;87.34
74224;SHT31;62585;49.706;18.216;2022-12-11T09:18:46;0.05;88.10
74224;SHT31;62585;49.706;18.216;2022-12-11T09:21:13;0.15;87.71
74224;SHT31;62585;49.706;18.216;2022-12-11T09:23:39;0.14;88.34
74224;SHT31;62585;49.706;18.216;2022-12-11T09:26:07;0.18;88.51
74224;SHT31;62585;49.706;18.216;2022-12-11T09:28:36;-0.10;88.96
74224;SHT31;62585;49.706;18.216;2022-12-11T09:31:14;0.09;89.13
74224;SHT31;62585;49.706;18.216;2022-12-11T09:33:41;0.21;88.77
74224;SHT31;62585;49.706;18.216;2022-12-11T09:36:07;0.11;88.38
74224;SHT31;62585;49.706;18.216;2022-12-11T09:38:34;0.25;87.91
74224;SHT31;62585;49.706;18.216;2022-12-11T09:43:57;0.09;89.21
74224;SHT31;62585;49.706;18.216;2022-12-11T09:46:26;0.18;89.37
74224;SHT31;62585;49.706;18.216;2022-12-11T09:48:52;0.21;88.96
74224;SHT31;62585;49.706;18.216;2022-12-11T09:53:44;0.14;88.13
74224;SHT31;62585;49.706;18.216;2022-12-11T09:56:25;0.15;88.26
74224;SHT31;62585;49.706;18.216;2022-12-11T10:07:11;0.12;88.48
74224;SHT31;62585;49.706;18.216;2022-12-11T10:10:12;0.12;88.49
74224;SHT31;62585;49.706;18.216;2022-12-11T10:12:56;0.04;88.54
74224;SHT31;62585;49.706;18.216;2022-12-11T10:18:03;0.06;88.67
74224;SHT31;62585;49.706;18.216;2022-12-11T10:20:33;0.16;88.81
74224;SHT31;62585;49.706;18.216;2022-12-11T10:23:06;0.24;88.19
74224;SHT31;62585;49.706;18.216;2022-12-11T10:25:39;0.21;87.75
74224;SHT31;62585;49.706;18.216;2022-12-11T10:28:17;-0.03;87.93
74224;SHT31;62585;49.706;18.216;2022-12-11T10:30:54;-0.12;87.97
74224;SHT31;62585;49.706;18.216;2022-12-11T10:36:14;-0.13;88.07
74224;SHT31;62585;49.706;18.216;2022-12-11T10:38:43;0.01;87.53
74224;SHT31;62585;49.706;18.216;2022-12-11T10:41:22;0.02;87.86
74224;SHT31;62585;49.706;18.216;2022-12-11T10:43:51;0.05;86.91
74224;SHT31;62585;49.706;18.216;2022-12-11T10:46:21;0.15;87.47
74224;SHT31;62585;49.706;18.216;2022-12-11T10:48:55;0.18;87.16
74224;SHT31;62585;49.706;18.216;2022-12-11T10:51:25;0.19;86.69
74224;SHT31;62585;49.706;18.216;2022-12-11T10:54:04;0.14;86.27
74224;SHT31;62585;49.706;18.216;2022-12-11T10:56:32;0.12;87.05
74224;SHT31;62585;49.706;18.216;2022-12-11T10:58:59;0.02;88.13
74224;SHT31;62585;49.706;18.216;2022-12-11T11:01:28;0.15;87.95
74224;SHT31;62585;49.706;18.216;2022-12-11T11:04:02;0.09;87.94
74224;SHT31;62585;49.706;18.216;2022-12-11T11:06:29;0.01;88.25
74224;SHT31;62585;49.706;18.216;2022-12-11T11:08:58;0.09;88.13
74224;SHT31;62585;49.706;18.216;2022-12-11T11:11:28;-0.10;88.03
74224;SHT31;62585;49.706;18.216;2022-12-11T11:14:14;0.08;87.97
74224;SHT31;62585;49.706;18.216;2022-12-11T11:16:43;-0.06;88.33
74224;SHT31;62585;49.706;18.216;2022-12-11T11:19:29;-0.10;86.87
74224;SHT31;62585;49.706;18.216;2022-12-11T11:22:25;-0.02;87.52
74224;SHT31;62585;49.706;18.216;2022-12-11T11:24:56;0.06;87.33
74224;SHT31;62585;49.706;18.216;2022-12-11T11:29:53;0.14;87.46
74224;SHT31;62585;49.706;18.216;2022-12-11T11:32:33;0.05;87.66
74224;SHT31;62585;49.706;18.216;2022-12-11T11:35:17;0.02;88.32
74224;SHT31;62585;49.706;18.216;2022-12-11T11:37:46;0.05;87.89
74224;SHT31;62585;49.706;18.216;2022-12-11T11:42:55;-0.01;87.90
74224;SHT31;62585;49.706;18.216;2022-12-11T11:45:30;-0.01;87.14
74224;SHT31;62585;49.706;18.216;2022-12-11T11:50:45;0.01;87.13
74224;SHT31;62585;49.706;18.216;2022-12-11T11:53:24;-0.03;86.91
74224;SHT31;62585;49.706;18.216;2022-12-11T11:58:46;-0.12;87.17
74224;SHT31;62585;49.706;18.216;2022-12-11T12:01:15;-0.07;86.58
74224;SHT31;62585;49.706;18.216;2022-12-11T12:03:43;-0.29;87.09
74224;SHT31;62585;49.706;18.216;2022-12-11T12:06:38;-0.33;87.27
74224;SHT31;62585;49.706;18.216;2022-12-11T12:09:20;-0.22;87.35
74224;SHT31;62585;49.706;18.216;2022-12-11T12:12:02;-0.20;87.39
74224;SHT31;62585;49.706;18.216;2022-12-11T12:22:52;-0.45;88.66
74224;SHT31;62585;49.706;18.216;2022-12-11T12:25:23;-0.41;87.87
74224;SHT31;62585;49.706;18.216;2022-12-11T12:30:50;-0.53;87.34
74224;SHT31;62585;49.706;18.216;2022-12-11T12:41:22;-0.19;87.54
74224;SHT31;62585;49.706;18.216;2022-12-11T12:44:02;-0.10;87.60
74224;SHT31;62585;49.706;18.216;2022-12-11T12:46:54;-0.12;87.38
74224;SHT31;62585;49.706;18.216;2022-12-11T12:49:48;-0.16;87.50
74224;SHT31;62585;49.706;18.216;2022-12-11T12:52:18;-0.09;86.96
74224;SHT31;62585;49.706;18.216;2022-12-11T12:54:47;-0.23;87.40
74224;SHT31;62585;49.706;18.216;2022-12-11T12:57:34;-0.15;87.64
74224;SHT31;62585;49.706;18.216;2022-12-11T13:00:02;-0.15;87.55
74224;SHT31;62585;49.706;18.216;2022-12-11T13:02:29;-0.22;87.15
74224;SHT31;62585;49.706;18.216;2022-12-11T13:05:02;-0.12;87.09
74224;SHT31;62585;49.706;18.216;2022-12-11T13:07:30;-0.09;86.95
74224;SHT31;62585;49.706;18.216;2022-12-11T13:12:45;-0.40;87.20
74224;SHT31;62585;49.706;18.216;2022-12-11T13:15:34;-0.34;87.53
74224;SHT31;62585;49.706;18.216;2022-12-11T13:18:36;-0.51;88.33
74224;SHT31;62585;49.706;18.216;2022-12-11T13:21:26;-0.54;88.64
74224;SHT31;62585;49.706;18.216;2022-12-11T13:23:53;-0.44;88.55
74224;SHT31;62585;49.706;18.216;2022-12-11T13:26:29;-0.47;88.85
74224;SHT31;62585;49.706;18.216;2022-12-11T13:28:56;-0.61;88.92
74224;SHT31;62585;49.706;18.216;2022-12-11T13:33:54;-0.50;88.46
74224;SHT31;62585;49.706;18.216;2022-12-11T13:36:30;-0.49;88.31
74224;SHT31;62585;49.706;18.216;2022-12-11T13:39:36;-0.57;88.38
74224;SHT31;62585;49.706;18.216;2022-12-11T13:42:06;-0.71;88.52
74224;SHT31;62585;49.706;18.216;2022-12-11T13:44:36;-0.78;88.84
74224;SHT31;62585;49.706;18.216;2022-12-11T13:47:05;-0.67;88.26
74224;SHT31;62585;49.706;18.216;2022-12-11T13:49:36;-0.77;87.66
74224;SHT31;62585;49.706;18.216;2022-12-11T13:52:04;-0.80;87.75
74224;SHT31;62585;49.706;18.216;2022-12-11T13:54:33;-0.82;87.27
74224;SHT31;62585;49.706;18.216;2022-12-11T13:59:36;-0.85;88.48
74224;SHT31;62585;49.706;18.216;2022-12-11T14:02:24;-0.80;88.66
74224;SHT31;62585;49.706;18.216;2022-12-11T14:04:54;-0.82;88.39
74224;SHT31;62585;49.706;18.216;2022-12-11T14:07:31;-0.71;88.07
74224;SHT31;62585;49.706;18.216;2022-12-11T14:10:02;-0.85;86.99
74224;SHT31;62585;49.706;18.216;2022-12-11T14:12:30;-1.02;87.44
74224;SHT31;62585;49.706;18.216;2022-12-11T14:14:58;-0.93;86.52
74224;SHT31;62585;49.706;18.216;2022-12-11T14:17:29;-0.99;86.81
74224;SHT31;62585;49.706;18.216;2022-12-11T14:19:58;-1.13;86.89
74224;SHT31;62585;49.706;18.216;2022-12-11T14:22:26;-1.16;87.09
74224;SHT31;62585;49.706;18.216;2022-12-11T14:24:56;-1.06;86.99
74224;SHT31;62585;49.706;18.216;2022-12-11T14:27:22;-1.05;86.89
74224;SHT31;62585;49.706;18.216;2022-12-11T14:29:49;-0.99;86.72
74224;SHT31;62585;49.706;18.216;2022-12-11T14:32:40;-1.08;86.70
74224;SHT31;62585;49.706;18.216;2022-12-11T14:35:24;-1.10;86.87
74224;SHT31;62585;49.706;18.216;2022-12-11T14:37:51;-1.05;87.20
74224;SHT31;62585;49.706;18.216;2022-12-11T14:40:19;-1.19;87.03
74224;SHT31;62585;49.706;18.216;2022-12-11T14:42:57;-1.26;87.22
74224;SHT31;62585;49.706;18.216;2022-12-11T14:48:03;-1.22;86.21
74224;SHT31;62585;49.706;18.216;2022-12-11T14:53:09;-1.26;87.23
74224;SHT31;62585;49.706;18.216;2022-12-11T14:55:39;-1.23;87.46
74224;SHT31;62585;49.706;18.216;2022-12-11T14:58:12;-1.19;87.12
74224;SHT31;62585;49.706;18.216;2022-12-11T15:00:39;-1.19;87.33
74224;SHT31;62585;49.706;18.216;2022-12-11T15:03:18;-1.37;86.79
74224;SHT31;62585;49.706;18.216;2022-12-11T15:05:51;-1.37;86.99
74224;SHT31;62585;49.706;18.216;2022-12-11T15:08:20;-1.30;87.94
74224;SHT31;62585;49.706;18.216;2022-12-11T15:11:10;-1.29;87.23
74224;SHT31;62585;49.706;18.216;2022-12-11T15:16:21;-1.35;87.83
74224;SHT31;62585;49.706;18.216;2022-12-11T15:18:49;-1.32;87.90
74224;SHT31;62585;49.706;18.216;2022-12-11T15:21:16;-1.37;87.71
74224;SHT31;62585;49.706;18.216;2022-12-11T15:23:47;-1.43;88.12
74224;SHT31;62585;49.706;18.216;2022-12-11T15:26:13;-1.35;88.09
74224;SHT31;62585;49.706;18.216;2022-12-11T15:28:39;-1.29;88.05
74224;SHT31;62585;49.706;18.216;2022-12-11T15:31:28;-1.32;87.46
74224;SHT31;62585;49.706;18.216;2022-12-11T15:33:54;-1.39;87.98
74224;SHT31;62585;49.706;18.216;2022-12-11T15:38:57;-1.54;88.00
74224;SHT31;62585;49.706;18.216;2022-12-11T15:41:24;-1.44;88.67
74224;SHT31;62585;49.706;18.216;2022-12-11T15:43:56;-1.46;88.00
74224;SHT31;62585;49.706;18.216;2022-12-11T15:46:22;-1.44;87.69
74224;SHT31;62585;49.706;18.216;2022-12-11T15:48:48;-1.47;88.13
74224;SHT31;62585;49.706;18.216;2022-12-11T15:51:15;-1.35;88.01
74224;SHT31;62585;49.706;18.216;2022-12-11T15:53:41;-1.35;87.71
74224;SHT31;62585;49.706;18.216;2022-12-11T15:56:17;-1.46;87.66
74224;SHT31;62585;49.706;18.216;2022-12-11T15:58:46;-1.44;88.08
74224;SHT31;62585;49.706;18.216;2022-12-11T16:01:13;-1.46;88.16
74224;SHT31;62585;49.706;18.216;2022-12-11T16:03:39;-1.44;88.08
74224;SHT31;62585;49.706;18.216;2022-12-11T16:06:05;-1.40;87.53
74224;SHT31;62585;49.706;18.216;2022-12-11T16:08:31;-1.50;87.36
74224;SHT31;62585;49.706;18.216;2022-12-11T16:10:57;-1.57;87.26
74224;SHT31;62585;49.706;18.216;2022-12-11T16:13:22;-1.58;88.06
74224;SHT31;62585;49.706;18.216;2022-12-11T16:15:50;-1.63;87.17
74224;SHT31;62585;49.706;18.216;2022-12-11T16:18:19;-1.72;88.00
74224;SHT31;62585;49.706;18.216;2022-12-11T16:20:46;-1.61;87.70
74224;SHT31;62585;49.706;18.216;2022-12-11T16:23:12;-1.57;87.05
74224;SHT31;62585;49.706;18.216;2022-12-11T16:25:41;-1.47;87.36
74224;SHT31;62585;49.706;18.216;2022-12-11T16:28:08;-1.53;87.61
74224;SHT31;62585;49.706;18.216;2022-12-11T16:30:36;-1.51;86.66
74224;SHT31;62585;49.706;18.216;2022-12-11T16:33:05;-1.50;87.03
74224;SHT31;62585;49.706;18.216;2022-12-11T16:35:32;-1.50;86.98
74224;SHT31;62585;49.706;18.216;2022-12-11T16:37:59;-1.54;86.78
74224;SHT31;62585;49.706;18.216;2022-12-11T16:40:25;-1.49;87.15
74224;SHT31;62585;49.706;18.216;2022-12-11T16:42:50;-1.57;86.91
74224;SHT31;62585;49.706;18.216;2022-12-11T16:45:19;-1.66;87.56
74224;SHT31;62585;49.706;18.216;2022-12-11T16:47:46;-1.58;86.98
74224;SHT31;62585;49.706;18.216;2022-12-11T16:50:13;-1.58;86.84
74224;SHT31;62585;49.706;18.216;2022-12-11T16:52:40;-1.57;86.96
74224;SHT31;62585;49.706;18.216;2022-12-11T16:55:07;-1.58;86.80
74224;SHT31;62585;49.706;18.216;2022-12-11T16:57:34;-1.64;87.24
74224;SHT31;62585;49.706;18.216;2022-12-11T17:00:07;-1.63;86.79
74224;SHT31;62585;49.706;18.216;2022-12-11T17:02:42;-1.60;87.01
74224;SHT31;62585;49.706;18.216;2022-12-11T17:05:08;-1.64;87.50
74224;SHT31;62585;49.706;18.216;2022-12-11T17:07:34;-1.71;87.39